Time;durP1;ratioP1;P1;durP2;ratioP2;P2;SDS_P1;SDS_P2;PMS_P1;PMS_P2;Temp;Humidity;BMP_temperature;BMP_pressure;BME280_temperature;BME280_humidity;BME280_pressure;Samples;Min_cycle;Max_cycle;Signal;HPM_P1;HPM_P2
2023/02/23 00:01:49;;;;;;;;;27.25;23.25;;;;;10.67;67.15;100882.16;146616;649;46016;-72
2023/02/23 00:04:56;;;;;;;;;20.75;16.75;;;;;10.57;65.68;100873.88;146617;596;46020;-72
2023/02/23 00:07:48;;;;;;;;;13.75;12.75;;;;;10.60;66.35;100888.72;146615;572;46030;-70
2023/02/23 00:10:57;;;;;;;;;16.00;13.50;;;;;10.56;66.10;100886.75;146620;634;46020;-71
2023/02/23 00:14:00;;;;;;;;;18.25;14.75;;;;;10.49;65.83;100887.22;146617;610;46017;-70
2023/02/23 00:16:54;;;;;;;;;24.00;20.00;;;;;10.43;65.81;100887.78;146625;602;46020;-70
2023/02/23 00:19:48;;;;;;;;;22.50;18.50;;;;;10.39;65.72;100886.72;146614;625;46016;-70
2023/02/23 00:22:41;;;;;;;;;27.00;20.25;;;;;10.35;65.71;100886.50;146622;576;46012;-70
2023/02/23 00:25:37;;;;;;;;;28.75;22.25;;;;;10.31;65.98;100885.44;146615;609;46020;-70
2023/02/23 00:28:29;;;;;;;;;21.75;17.50;;;;;10.28;65.90;100880.09;146625;630;46010;-70
2023/02/23 00:31:24;;;;;;;;;26.50;20.50;;;;;10.24;66.81;100883.25;146616;570;46014;-70
2023/02/23 00:34:20;;;;;;;;;23.50;20.00;;;;;10.22;67.18;100881.37;146618;621;46010;-71
2023/02/23 00:37:18;;;;;;;;;18.00;13.25;;;;;10.24;70.97;100877.19;146620;641;46012;-71
2023/02/23 00:40:46;;;;;;;;;23.75;18.25;;;;;10.25;70.63;100877.28;146620;566;46020;-70
2023/02/23 00:44:01;;;;;;;;;21.50;17.00;;;;;10.21;68.48;100856.28;146619;580;46914;-72
2023/02/23 00:46:57;;;;;;;;;18.75;16.25;;;;;10.41;70.51;100879.06;146623;586;46010;-73
2023/02/23 00:50:04;;;;;;;;;20.25;17.25;;;;;10.49;70.73;100877.75;146618;649;46014;-73
2023/02/23 00:53:15;;;;;;;;;16.75;14.50;;;;;10.53;68.75;100882.31;146625;595;46010;-72
2023/02/23 00:56:40;;;;;;;;;19.50;15.25;;;;;10.54;68.78;100878.91;146615;597;46014;-74
2023/02/23 00:59:58;;;;;;;;;;;;;;;;;;;;;
2023/02/23 01:03:01;;;;;;;;;31.50;26.50;;;;;10.52;73.27;100875.31;146618;616;46016;-72
2023/02/23 01:06:22;;;;;;;;;23.50;22.25;;;;;10.39;71.26;100847.84;146620;569;46020;-72
2023/02/23 01:09:34;;;;;;;;;28.50;24.25;;;;;10.53;71.97;100882.31;146616;630;46016;-72
2023/02/23 01:12:35;;;;;;;;;30.50;28.25;;;;;10.58;72.09;100878.25;146619;608;46021;-73
2023/02/23 01:15:31;;;;;;;;;26.50;24.50;;;;;10.64;71.95;100885.47;146616;590;46915;-73
2023/02/23 01:18:28;;;;;;;;;35.25;28.25;;;;;10.69;71.63;100877.94;146618;591;46013;-73
2023/02/23 01:21:27;;;;;;;;;35.00;30.75;;;;;10.73;71.98;100880.78;146616;588;46016;-72
2023/02/23 01:24:24;;;;;;;;;35.75;31.75;;;;;10.71;72.82;100873.72;146620;584;46020;-72
2023/02/23 01:27:39;;;;;;;;;26.75;25.00;;;;;10.61;71.97;100874.94;146619;593;46014;-73
2023/02/23 01:30:46;;;;;;;;;26.75;22.75;;;;;10.22;70.33;100816.59;146619;601;46020;-73
2023/02/23 01:33:50;;;;;;;;;25.50;21.00;;;;;10.38;70.70;100856.44;146618;595;46013;-73
2023/02/23 01:37:02;;;;;;;;;21.25;20.75;;;;;10.46;69.93;100882.75;146619;570;46021;-72
2023/02/23 01:40:27;;;;;;;;;16.50;16.50;;;;;10.40;69.81;100882.44;146620;612;46012;-72
2023/02/23 01:43:28;;;;;;;;;17.25;15.00;;;;;10.29;70.52;100873.19;146620;585;46020;-73
2023/02/23 01:46:37;;;;;;;;;15.00;12.75;;;;;10.22;70.41;100871.03;146618;563;46036;-73
2023/02/23 01:49:34;;;;;;;;;18.00;14.75;;;;;10.21;70.45;100864.06;146620;631;46021;-73
2023/02/23 01:52:40;;;;;;;;;16.75;15.75;;;;;10.22;70.85;100871.03;146617;601;46919;-71
2023/02/23 01:55:34;;;;;;;;;16.75;14.00;;;;;10.20;70.13;100870.97;146619;579;46020;-71
2023/02/23 01:58:37;;;;;;;;;15.50;15.25;;;;;10.16;69.13;100871.59;146618;601;46021;-69
2023/02/23 02:01:33;;;;;;;;;16.00;14.25;;;;;10.12;70.30;100875.72;146619;693;46020;-70
2023/02/23 02:04:42;;;;;;;;;15.00;14.25;;;;;10.08;70.12;100878.94;146620;585;46013;-71
2023/02/23 02:08:07;;;;;;;;;16.25;15.00;;;;;9.89;68.12;100845.94;146623;611;46010;-70
2023/02/23 02:11:35;;;;;;;;;16.50;14.00;;;;;10.06;68.86;100877.97;146616;633;46017;-70
2023/02/23 02:14:47;;;;;;;;;18.25;15.75;;;;;10.01;67.26;100875.94;146618;591;46020;-72
2023/02/23 02:18:24;;;;;;;;;14.25;12.75;;;;;10.02;67.30;100881.19;146617;609;46017;-70
2023/02/23 02:22:28;;;;;;;;;17.75;16.00;;;;;9.21;68.15;100744.59;146622;639;46020;-72
2023/02/23 02:26:20;;;;;;;;;17.00;15.75;;;;;10.03;68.27;100885.59;146620;629;46017;-72
2023/02/23 02:29:49;;;;;;;;;13.75;11.25;;;;;10.06;68.33;100882.25;146625;647;46010;-70
2023/02/23 02:33:42;;;;;;;;;16.75;15.75;;;;;10.08;68.12;100885.81;146619;581;46012;-71
2023/02/23 02:37:40;;;;;;;;;21.00;17.00;;;;;9.63;67.41;100807.34;146623;633;46010;-71
2023/02/23 02:41:27;;;;;;;;;18.75;18.50;;;;;10.07;68.96;100887.53;146621;596;46014;-71
2023/02/23 02:44:49;;;;;;;;;18.50;14.50;;;;;10.07;70.28;100890.13;146623;573;46012;-71
2023/02/23 02:48:24;;;;;;;;;19.50;17.75;;;;;9.96;69.17;100854.94;146618;599;46016;-69
2023/02/23 02:51:38;;;;;;;;;19.75;18.25;;;;;10.15;69.91;100880.16;146623;764;46012;-69
2023/02/23 02:55:20;;;;;;;;;17.25;14.75;;;;;10.14;69.29;100879.28;146617;582;45033;-71
2023/02/23 02:58:23;;;;;;;;;17.25;15.25;;;;;10.18;70.68;100881.22;146621;570;46020;-72
2023/02/23 04:17:57;;;;;;;;;30.25;26.75;;;;;10.45;70.04;100927.66;146617;573;46010;-69
2023/02/23 04:21:14;;;;;;;;;31.00;24.75;;;;;10.42;70.50;100930.09;146615;565;46016;-70
2023/02/23 04:24:14;;;;;;;;;24.25;21.00;;;;;10.36;71.20;100921.97;146619;582;46029;-69
2023/02/23 04:27:19;;;;;;;;;24.75;19.50;;;;;10.26;71.38;100927.41;146610;586;46915;-70
2023/02/23 04:30:20;;;;;;;;;26.50;23.00;;;;;10.15;72.34;100935.47;146620;577;46018;-72
2023/02/23 04:33:15;;;;;;;;;28.50;24.75;;;;;10.13;71.99;100939.69;146613;647;46915;-68
2023/02/23 04:36:26;;;;;;;;;;;;;;;;;;;;;
2023/02/23 04:39:48;;;;;;;;;27.25;25.75;;;;;10.15;72.53;100935.47;146615;583;46913;-71
2023/02/23 04:42:50;;;;;;;;;27.50;24.00;;;;;10.14;72.94;100943.16;146616;590;46020;-71
2023/02/23 04:45:50;;;;;;;;;19.00;17.50;;;;;10.12;72.31;100942.19;146614;566;46015;-71
2023/02/23 04:48:50;;;;;;;;;21.25;19.75;;;;;10.11;71.98;100943.00;146619;569;46010;-72
2023/02/23 04:52:02;;;;;;;;;19.75;17.25;;;;;10.15;72.20;100945.84;146612;632;46016;-73
2023/02/23 04:55:32;;;;;;;;;22.25;18.00;;;;;10.21;71.85;100947.88;146617;599;47010;-73
2023/02/23 04:58:30;;;;;;;;;17.75;16.00;;;;;10.28;72.84;100946.56;146613;570;46038;-70
2023/02/23 05:01:35;;;;;;;;;20.00;15.25;;;;;10.33;72.81;100938.22;146620;625;46011;-70
2023/02/23 05:04:37;;;;;;;;;22.25;19.00;;;;;10.42;71.60;100950.81;146617;606;45016;-71
2023/02/23 05:07:44;;;;;;;;;18.75;17.25;;;;;10.50;73.78;100946.03;146619;603;46020;-71
2023/02/23 05:10:47;;;;;;;;;20.00;18.00;;;;;10.54;72.93;100951.50;146618;579;46016;-72
2023/02/23 05:13:48;;;;;;;;;19.25;16.75;;;;;10.60;73.03;100954.44;146616;688;46020;-70
2023/02/23 05:16:45;;;;;;;;;21.50;20.00;;;;;10.69;71.90;100974.78;146618;624;46014;-71
2023/02/23 05:19:40;;;;;;;;;21.00;19.00;;;;;10.77;72.20;100970.00;146618;578;46020;-71
2023/02/23 05:22:41;;;;;;;;;17.75;17.00;;;;;10.82;71.11;100971.16;146617;624;46012;-71
2023/02/23 05:25:37;;;;;;;;;13.25;12.50;;;;;10.87;71.83;100967.09;146618;578;46010;-69
2023/02/23 05:28:32;;;;;;;;;18.25;17.00;;;;;10.92;71.34;100983.81;146616;605;46012;-71
2023/02/23 05:31:36;;;;;;;;;19.00;15.25;;;;;11.00;69.78;100984.22;146619;588;47012;-70
2023/02/23 05:34:34;;;;;;;;;20.00;17.00;;;;;11.04;70.34;100983.56;146616;569;46016;-71
2023/02/23 05:37:49;;;;;;;;;21.00;18.50;;;;;11.12;70.06;100991.75;146620;616;46011;-71
2023/02/23 05:40:49;;;;;;;;;21.00;18.75;;;;;11.19;69.94;101001.69;146614;584;46016;-72
2023/02/23 05:43:56;;;;;;;;;25.75;21.25;;;;;11.26;69.75;100999.47;146619;631;46020;-72
2023/02/23 05:46:52;;;;;;;;;22.75;19.25;;;;;11.30;69.49;101000.53;146616;603;46016;-71
2023/02/23 05:49:56;;;;;;;;;26.50;21.25;;;;;11.33;68.84;101009.34;146620;610;46020;-71
2023/02/23 05:52:52;;;;;;;;;28.75;22.75;;;;;11.38;69.71;101006.13;146615;643;46016;-71
2023/02/23 05:55:55;;;;;;;;;27.00;22.00;;;;;11.46;69.04;101016.06;146616;630;47010;-70
2023/02/23 05:58:56;;;;;;;;;22.50;21.00;;;;;11.54;69.57;101017.38;146616;620;46012;-71
2023/02/23 06:02:00;;;;;;;;;28.25;24.75;;;;;11.62;69.68;101020.41;146618;613;46011;-70
2023/02/23 06:05:02;;;;;;;;;31.25;26.25;;;;;11.67;69.39;101025.81;146616;575;46016;-69
2023/02/23 06:08:02;;;;;;;;;33.75;26.75;;;;;11.71;69.24;101027.75;146618;597;46032;-71
2023/02/23 06:11:00;;;;;;;;;39.25;33.75;;;;;11.77;70.14;101026.38;146615;582;46016;-70
2023/02/23 06:13:58;;;;;;;;;42.75;35.00;;;;;11.85;69.74;101026.78;146618;571;46010;-71
2023/02/23 06:17:02;;;;;;;;;;;;;;;;;;;;;
2023/02/23 06:20:03;;;;;;;;;38.25;31.25;;;;;11.99;69.67;101033.59;146621;575;46020;-69
2023/02/23 06:22:58;;;;;;;;;29.75;25.75;;;;;12.07;69.28;101035.66;146619;577;46013;-69
2023/02/23 06:25:59;;;;;;;;;33.25;28.00;;;;;12.15;69.49;101031.72;146620;616;46010;-71
2023/02/23 06:28:57;;;;;;;;;35.50;31.25;;;;;12.24;69.39;101037.37;146616;587;46015;-69
2023/02/23 06:32:01;;;;;;;;;35.75;31.00;;;;;12.32;69.50;101042.97;146618;620;46020;-71
2023/02/23 06:35:02;;;;;;;;;32.00;29.00;;;;;12.41;69.31;101043.44;146618;565;46014;-69
2023/02/23 06:38:04;;;;;;;;;37.50;31.50;;;;;12.50;69.02;101048.19;146619;632;46021;-70
2023/02/23 06:41:20;;;;;;;;;43.00;34.00;;;;;11.88;69.55;100922.13;146619;579;46016;-71
2023/02/23 06:44:34;;;;;;;;;45.75;37.50;;;;;12.70;68.60;101055.22;146619;639;46020;-70
2023/02/23 06:47:35;;;;;;;;;52.25;41.00;;;;;12.78;69.09;101040.87;146612;625;47012;-70
2023/02/23 06:50:41;;;;;;;;;;;;;;;;;;;;;
2023/02/23 06:53:35;;;;;;;;;52.00;40.50;;;;;12.96;70.46;101048.66;146616;630;46016;-69
2023/02/23 06:56:27;;;;;;;;;49.50;39.00;;;;;13.07;70.63;101052.66;146615;628;46020;-69
2023/02/23 06:59:29;;;;;;;;;37.75;31.50;;;;;13.14;70.65;101052.09;146616;602;46016;-69
2023/02/23 07:02:28;;;;;;;;;28.50;25.25;;;;;13.22;71.35;101060.28;146619;571;46012;-69
2023/02/23 07:05:43;;;;;;;;;34.75;30.50;;;;;13.23;71.23;101055.97;146619;613;46016;-70
2023/02/23 07:08:51;;;;;;;;;42.75;32.50;;;;;13.30;71.15;101064.16;146620;669;46021;-70
2023/02/23 07:11:47;;;;;;;;;44.50;34.75;;;;;13.34;70.79;101067.81;146615;598;46014;-70
2023/02/23 07:14:43;;;;;;;;;32.00;28.25;;;;;13.43;70.79;101067.28;146620;641;46011;-71
2023/02/23 07:17:51;;;;;;;;;29.00;25.00;;;;;13.50;70.25;101066.78;146612;583;46016;-70
2023/02/23 07:21:11;;;;;;;;;;;;;;;;;;;;;
2023/02/23 07:24:10;;;;;;;;;36.50;31.50;;;;;13.61;70.93;101068.13;146616;594;46019;-70
2023/02/23 07:27:13;;;;;;;;;32.75;29.75;;;;;13.62;70.58;101062.12;146623;582;46010;-69
2023/02/23 07:30:13;;;;;;;;;36.75;32.00;;;;;13.68;70.28;101059.78;146616;599;46917;-70
2023/02/23 07:33:24;;;;;;;;;30.50;24.50;;;;;13.76;70.63;101055.78;146618;590;46020;-69
2023/02/23 07:36:37;;;;;;;;;;;;;;;;;;;;;
2023/02/23 07:39:50;;;;;;;;;26.50;22.50;;;;;13.93;68.87;101063.44;146616;628;46020;-69
2023/02/23 07:43:05;;;;;;;;;31.50;27.00;;;;;14.02;69.42;101061.25;146617;590;46916;-71
2023/02/23 07:46:06;;;;;;;;;30.00;24.50;;;;;14.11;68.71;101059.00;146620;581;46010;-68
2023/02/23 07:49:09;;;;;;;;;25.25;22.00;;;;;14.22;69.19;101057.75;146616;593;46014;-69
2023/02/23 07:52:03;;;;;;;;;25.50;23.25;;;;;14.39;69.38;101054.94;146618;624;46021;-71
2023/02/23 07:55:02;;;;;;;;;24.50;19.25;;;;;14.52;68.93;101046.81;146616;587;46016;-70
2023/02/23 07:58:13;;;;;;;;;;;;;;;;;;;;;
2023/02/23 08:01:24;;;;;;;;;35.00;29.00;;;;;14.83;67.66;101055.84;146619;571;46012;-71
2023/02/23 08:04:22;;;;;;;;;33.50;30.00;;;;;14.97;67.56;101044.22;146620;604;46023;-74
2023/02/23 08:07:23;;;;;;;;;23.75;20.25;;;;;15.14;66.72;101050.09;146614;571;46017;-71
2023/02/23 08:10:36;;;;;;;;;27.25;23.75;;;;;15.36;66.55;101054.41;146617;585;46020;-72
2023/02/23 08:13:38;;;;;;;;;30.50;27.75;;;;;15.62;65.52;101045.78;146616;607;46014;-71
2023/02/23 08:16:46;;;;;;;;;28.00;24.75;;;;;15.84;65.29;101051.81;146621;569;46010;-72
2023/02/23 08:19:52;;;;;;;;;33.75;28.00;;;;;16.07;64.13;101052.59;146613;578;47012;-72
2023/02/23 08:23:07;;;;;;;;;28.50;23.75;;;;;16.34;63.18;101061.38;146620;615;46010;-72
2023/02/23 08:26:19;;;;;;;;;24.50;20.50;;;;;16.52;62.85;101061.09;146617;591;46012;-70
2023/02/23 08:29:12;;;;;;;;;31.75;25.50;;;;;16.74;62.18;101046.06;146620;589;47010;-69
2023/02/23 08:32:26;;;;;;;;;26.00;22.25;;;;;16.88;60.75;101043.91;146615;658;46014;-70
2023/02/23 08:35:30;;;;;;;;;27.00;23.75;;;;;17.05;61.06;101043.59;146618;720;46021;-71
2023/02/23 08:38:36;;;;;;;;;26.75;24.75;;;;;17.23;60.57;101048.47;146614;587;46029;-69
2023/02/23 08:41:43;;;;;;;;;31.25;28.75;;;;;17.33;59.88;101054.88;146621;604;46012;-70
2023/02/23 08:44:54;;;;;;;;;26.00;24.25;;;;;17.39;60.45;101055.06;146615;573;46017;-69
2023/02/23 08:48:07;;;;;;;;;24.25;23.00;;;;;17.57;59.52;101059.94;146619;564;46020;-69
2023/02/23 08:51:10;;;;;;;;;29.75;26.50;;;;;17.73;58.57;101058.62;146612;608;46017;-69
2023/02/23 08:54:27;;;;;;;;;;;;;;;;;;;;;
2023/02/23 08:57:19;;;;;;;;;30.25;28.00;;;;;17.92;58.55;101074.06;146613;640;46018;-70
2023/02/23 09:00:19;;;;;;;;;32.25;28.25;;;;;17.99;58.52;101061.97;146620;564;46010;-69
2023/02/23 09:03:15;;;;;;;;;29.75;24.50;;;;;18.12;57.84;101066.69;146615;620;46012;-69
2023/02/23 09:06:14;;;;;;;;;27.75;24.25;;;;;18.23;57.14;101066.97;146615;564;46020;-69
2023/02/23 09:09:06;;;;;;;;;16.25;13.25;;;;;18.24;55.87;101069.62;146616;573;46016;-70
2023/02/23 09:11:59;;;;;;;;;24.75;22.25;;;;;18.26;57.26;101064.44;146618;601;46021;-69
2023/02/23 09:14:54;;;;;;;;;23.25;20.50;;;;;18.30;56.05;101066.28;146618;564;45017;-69
2023/02/23 09:17:46;;;;;;;;;30.00;24.00;;;;;18.38;57.05;101063.81;146616;587;45020;-69
2023/02/23 09:20:45;;;;;;;;;25.25;23.50;;;;;18.48;56.72;101070.22;146614;571;46016;-69
2023/02/23 09:23:40;;;;;;;;;27.25;25.00;;;;;18.60;55.70;101071.41;146617;659;46020;-69
2023/02/23 09:26:39;;;;;;;;;26.00;24.00;;;;;18.69;56.12;101071.63;146615;589;46016;-70
2023/02/23 09:29:35;;;;;;;;;25.00;23.50;;;;;18.76;55.65;101067.44;146618;570;46021;-70
2023/02/23 09:32:48;;;;;;;;;25.00;21.75;;;;;18.78;55.33;101065.72;146616;619;46915;-70
2023/02/23 09:36:04;;;;;;;;;24.75;22.50;;;;;18.68;55.52;101058.44;146618;627;46022;-69
2023/02/23 09:39:09;;;;;;;;;22.25;22.25;;;;;18.73;54.99;101077.00;146615;709;46012;-70
2023/02/23 09:42:43;;;;;;;;;25.25;23.00;;;;;18.63;56.10;101073.22;146620;668;46010;-70
2023/02/23 09:45:58;;;;;;;;;21.00;19.75;;;;;18.66;56.19;101078.53;146617;611;46016;-70
2023/02/23 09:48:52;;;;;;;;;19.50;17.75;;;;;18.64;55.63;101067.09;146619;620;46020;-70
2023/02/23 09:52:01;;;;;;;;;21.50;21.25;;;;;18.68;55.66;101061.06;146616;585;46916;-70
2023/02/23 09:55:01;;;;;;;;;25.75;23.00;;;;;18.72;55.83;101064.66;146620;599;46020;-69
2023/02/23 09:57:54;;;;;;;;;22.50;19.50;;;;;18.75;55.17;101059.50;146615;671;46016;-69
2023/02/23 10:01:06;;;;;;;;;9.25;8.75;;;;;18.79;55.51;101064.00;146620;603;46012;-70
2023/02/23 10:04:22;;;;;;;;;23.25;19.50;;;;;18.80;56.01;101056.12;146614;586;46016;-71
2023/02/23 10:08:19;;;;;;;;;;;;;;;;;;;;;
2023/02/23 10:11:57;;;;;;;;;25.75;23.00;;;;;19.00;57.91;101059.19;146618;608;46915;-68
2023/02/23 10:15:28;;;;;;;;;23.00;22.75;;;;;19.10;55.17;101055.06;146620;583;46010;-70
2023/02/23 10:19:15;;;;;;;;;21.25;16.75;;;;;19.09;54.59;101046.25;146617;564;46915;-70
2023/02/23 10:22:34;;;;;;;;;21.75;18.00;;;;;19.11;54.71;101049.81;146621;590;46010;-68
2023/02/23 10:25:53;;;;;;;;;23.00;20.50;;;;;19.17;54.71;101038.56;146620;584;46012;-70
2023/02/23 10:29:03;;;;;;;;;21.25;20.75;;;;;19.28;54.76;101037.06;146619;578;46010;-68
2023/02/23 10:32:21;;;;;;;;;24.75;21.00;;;;;19.48;55.85;101031.31;146618;616;46012;-71
2023/02/23 10:35:28;;;;;;;;;23.00;19.00;;;;;19.69;55.58;101021.22;146618;567;46021;-68
2023/02/23 10:38:41;;;;;;;;;25.25;20.50;;;;;19.81;55.51;101018.81;146618;571;46012;-69
2023/02/23 10:41:46;;;;;;;;;16.50;12.00;;;;;19.93;53.50;101017.25;146618;565;46021;-71
2023/02/23 10:44:45;;;;;;;;;23.25;20.25;;;;;19.98;53.17;101013.84;146616;602;46016;-70
2023/02/23 10:48:12;;;;;;;;;19.50;15.25;;;;;19.93;51.26;101015.50;146619;614;46010;-71
2023/02/23 10:51:08;;;;;;;;;20.50;19.75;;;;;19.82;54.31;101017.06;146619;570;46012;-70
2023/02/23 10:54:48;;;;;;;;;20.75;20.00;;;;;19.86;53.63;101012.75;146621;619;46010;-69
2023/02/23 10:58:05;;;;;;;;;25.25;22.00;;;;;19.86;53.71;101012.75;146618;573;46012;-69
2023/02/23 11:01:05;;;;;;;;;29.00;22.75;;;;;19.85;53.70;101011.88;146621;575;46010;-69
2023/02/23 11:03:59;;;;;;;;;25.25;23.50;;;;;19.84;52.80;101003.09;146614;604;47024;-69
2023/02/23 11:07:44;;;;;;;;;21.00;20.50;;;;;19.81;54.26;100987.25;146618;581;46012;-69
2023/02/23 11:10:36;;;;;;;;;18.25;17.00;;;;;19.88;53.01;100995.25;146614;650;46017;-70
2023/02/23 11:13:56;;;;;;;;;24.00;22.50;;;;;19.62;53.84;100958.78;146620;634;46010;-70
2023/02/23 11:17:01;;;;;;;;;26.00;23.50;;;;;19.85;53.89;100988.19;146611;564;46018;-70
2023/02/23 11:19:56;;;;;;;;;25.75;22.00;;;;;19.90;53.21;100989.13;146621;616;46010;-69
2023/02/23 11:23:02;;;;;;;;;22.50;21.00;;;;;19.80;53.66;100979.31;146616;586;46016;-70
2023/02/23 11:26:27;;;;;;;;;26.00;22.25;;;;;19.75;54.08;100979.25;146620;646;46012;-68
2023/02/23 11:30:07;;;;;;;;;30.75;28.25;;;;;19.71;54.44;100979.16;146614;586;46016;-70
2023/02/23 11:33:19;;;;;;;;;27.50;23.25;;;;;19.69;53.64;100976.50;146618;604;45021;-70
2023/02/23 11:36:37;;;;;;;;;26.50;24.50;;;;;19.67;54.24;100967.69;146615;581;46016;-69
2023/02/23 11:40:01;;;;;;;;;28.75;26.75;;;;;19.78;54.67;100971.41;146619;592;46021;-70
2023/02/23 11:43:26;;;;;;;;;27.00;23.25;;;;;19.95;54.16;100962.91;146614;571;45916;-69
2023/02/23 11:46:41;;;;;;;;;21.75;20.75;;;;;20.04;52.98;100958.69;146621;634;46010;-69
2023/02/23 11:50:06;;;;;;;;;23.50;20.75;;;;;20.03;52.81;100949.03;146613;638;47014;-69
2023/02/23 11:53:23;;;;;;;;;21.25;19.25;;;;;20.03;52.83;100956.00;146619;592;46020;-70
2023/02/23 11:56:35;;;;;;;;;16.50;14.00;;;;;20.01;52.71;100952.50;146616;600;47012;-70
2023/02/23 11:59:41;;;;;;;;;23.50;19.75;;;;;19.94;50.73;100953.25;146620;661;46010;-68
2023/02/23 12:02:47;;;;;;;;;23.00;21.00;;;;;19.95;52.38;100947.12;146616;695;46016;-69
2023/02/23 12:05:53;;;;;;;;;23.25;21.00;;;;;20.01;52.16;100941.97;146618;564;46020;-69
2023/02/23 12:09:01;;;;;;;;;20.00;17.25;;;;;20.16;52.24;100950.09;146615;596;46014;-69
2023/02/23 12:12:27;;;;;;;;;19.75;19.25;;;;;20.05;51.79;100927.97;146619;591;46020;-70
2023/02/23 12:15:53;;;;;;;;;21.00;19.50;;;;;20.12;51.13;100944.75;146616;596;46915;-69
2023/02/23 12:19:49;;;;;;;;;18.75;17.75;;;;;20.10;52.93;100935.97;146612;648;47012;-72
2023/02/23 12:23:25;;;;;;;;;14.00;11.75;;;;;19.27;52.26;100800.41;146616;607;46016;-69
2023/02/23 12:26:48;;;;;;;;;22.50;20.00;;;;;19.93;52.95;100936.56;146620;583;46012;-70
2023/02/23 12:30:07;;;;;;;;;18.75;16.75;;;;;19.90;51.86;100940.88;146616;597;45018;-69
2023/02/23 12:33:32;;;;;;;;;25.75;20.25;;;;;19.79;52.66;100943.34;146620;564;46021;-69
2023/02/23 12:36:56;;;;;;;;;25.75;22.50;;;;;19.65;52.90;100929.94;146615;583;46016;-71
2023/02/23 12:40:00;;;;;;;;;18.00;18.00;;;;;19.69;52.91;100936.13;146616;635;46021;-70
2023/02/23 12:43:48;;;;;;;;;18.25;16.50;;;;;19.47;51.99;100890.13;146616;673;46913;-70
2023/02/23 12:47:00;;;;;;;;;22.75;19.50;;;;;19.70;52.91;100935.28;146619;641;46021;-69
2023/02/23 12:50:32;;;;;;;;;20.25;17.00;;;;;19.75;53.00;100931.87;146618;690;45016;-70
2023/02/23 12:53:52;;;;;;;;;23.00;18.25;;;;;19.65;53.20;100890.47;146618;782;47012;-70
2023/02/23 12:57:29;;;;;;;;;18.75;18.25;;;;;19.85;52.50;100927.66;146617;594;46017;-71
2023/02/23 13:00:58;;;;;;;;;19.25;18.50;;;;;19.76;52.96;100924.87;146697;576;45022;-69
2023/02/23 13:04:32;;;;;;;;;19.25;18.00;;;;;19.66;53.55;100912.41;146609;617;48013;-72
2023/02/23 13:08:20;;;;;;;;;24.25;22.50;;;;;19.53;53.60;100914.81;146613;564;46022;-69
2023/02/23 13:11:51;;;;;;;;;19.00;18.75;;;;;19.52;53.96;100925.28;146611;605;46012;-71
2023/02/23 13:15:30;;;;;;;;;18.50;15.75;;;;;19.51;54.47;100931.41;146614;610;46020;-72
2023/02/23 13:18:54;;;;;;;;;25.50;21.50;;;;;19.46;53.99;100930.44;146610;601;46015;-69
2023/02/23 13:22:34;;;;;;;;;24.25;20.50;;;;;19.31;54.74;100910.00;146613;574;47010;-71
2023/02/23 13:26:09;;;;;;;;;18.00;17.00;;;;;17.64;54.58;100655.44;146611;581;45038;-70
2023/02/23 13:29:49;;;;;;;;;26.00;24.00;;;;;19.05;55.44;100920.91;146614;677;46023;-69
2023/02/23 13:32:45;;;;;;;;;20.00;19.75;;;;;19.09;55.68;100927.09;146612;664;46012;-70
2023/02/23 13:35:41;;;;;;;;;20.50;19.00;;;;;19.14;56.43;100930.72;146611;609;46031;-71
2023/02/23 13:39:25;;;;;;;;;24.75;22.00;;;;;19.20;56.11;100924.72;146610;733;46016;-70
2023/02/23 13:42:57;;;;;;;;;21.00;18.50;;;;;19.20;55.35;100932.59;146613;613;46022;-69
2023/02/23 13:46:32;;;;;;;;;22.00;20.50;;;;;19.16;55.75;100926.41;146607;570;46034;-70
2023/02/23 13:50:20;;;;;;;;;21.25;17.50;;;;;18.79;55.60;100881.00;146611;720;46010;-69
2023/02/23 13:53:46;;;;;;;;;22.50;20.50;;;;;18.34;55.75;100802.09;146612;578;46031;-70
2023/02/23 13:56:54;;;;;;;;;16.25;15.00;;;;;19.14;55.68;100925.47;146614;604;46021;-69
2023/02/23 13:59:49;;;;;;;;;18.50;17.75;;;;;18.51;56.08;100818.22;146617;581;46016;-69
2023/02/23 14:02:50;;;;;;;;;19.25;18.25;;;;;19.09;55.55;100924.47;146619;716;46010;-69
2023/02/23 14:05:48;;;;;;;;;18.75;18.25;;;;;18.39;56.07;100818.84;146614;582;46914;-69
2023/02/23 14:08:57;;;;;;;;;16.25;13.75;;;;;18.90;55.71;100920.59;146616;613;46020;-69
2023/02/23 14:12:05;;;;;;;;;17.25;16.00;;;;;18.81;56.45;100923.03;146611;587;46017;-69
2023/02/23 14:15:01;;;;;;;;;17.25;15.75;;;;;18.77;57.19;100913.31;146622;578;46010;-70
2023/02/23 14:18:27;;;;;;;;;16.50;15.75;;;;;18.82;56.75;100924.84;146617;610;46015;-69
2023/02/23 14:22:18;;;;;;;;;18.25;18.25;;;;;18.12;56.28;100792.87;146617;607;46020;-69
2023/02/23 14:25:39;;;;;;;;;25.00;22.50;;;;;18.84;56.73;100912.59;146701;569;46022;-68
2023/02/23 14:29:13;;;;;;;;;22.00;17.25;;;;;18.58;56.36;100885.75;146614;570;46015;-68
2023/02/23 14:32:44;;;;;;;;;22.50;19.50;;;;;18.55;57.07;100911.94;146616;579;46010;-70
2023/02/23 14:35:45;;;;;;;;;24.75;20.00;;;;;17.80;57.02;100789.56;146612;564;46014;-69
2023/02/23 14:38:53;;;;;;;;;22.75;21.75;;;;;18.40;58.29;100915.13;146616;647;46010;-69
2023/02/23 14:42:00;;;;;;;;;17.75;17.00;;;;;18.29;57.60;100916.62;146611;616;46016;-69
2023/02/23 14:45:11;;;;;;;;;18.50;17.00;;;;;18.16;58.15;100910.19;146617;570;46021;-69
2023/02/23 14:48:26;;;;;;;;;26.00;20.75;;;;;17.71;56.75;100853.13;146613;638;46016;-70
2023/02/23 14:52:04;;;;;;;;;19.75;16.25;;;;;17.95;56.68;100916.72;146615;569;46021;-69
2023/02/23 14:55:35;;;;;;;;;17.25;17.25;;;;;17.82;57.27;100917.28;146609;583;47032;-69
2023/02/23 14:58:43;;;;;;;;;21.25;17.25;;;;;17.74;57.33;100914.41;146615;613;46020;-69
2023/02/23 15:01:45;;;;;;;;;15.25;13.00;;;;;17.66;57.32;100918.59;146612;632;46016;-68
2023/02/23 15:04:46;;;;;;;;;21.50;19.00;;;;;17.63;58.32;100926.38;146614;590;46020;-68
2023/02/23 15:08:03;;;;;;;;;16.25;14.25;;;;;17.58;57.32;100922.75;146613;569;46016;-69
2023/02/23 15:11:18;;;;;;;;;19.25;17.50;;;;;17.55;57.51;100920.91;146617;592;46024;-69
2023/02/23 15:14:35;;;;;;;;;17.50;16.00;;;;;17.55;58.43;100923.53;146609;613;46016;-69
2023/02/23 15:17:48;;;;;;;;;16.75;16.75;;;;;17.56;58.39;100921.81;146615;632;46020;-69
2023/02/23 15:20:49;;;;;;;;;18.25;17.00;;;;;17.55;59.11;100931.41;146612;578;46017;-68
2023/02/23 15:24:07;;;;;;;;;16.00;15.75;;;;;17.51;58.04;100929.56;146616;613;46021;-69
2023/02/23 15:27:08;;;;;;;;;18.25;17.25;;;;;17.47;58.60;100932.03;146611;607;46914;-69
2023/02/23 15:30:34;;;;;;;;;20.00;17.25;;;;;17.36;58.60;100929.16;146618;646;46020;-69
2023/02/23 15:33:33;;;;;;;;;18.25;16.75;;;;;17.27;59.34;100926.28;146612;660;46016;-69
2023/02/23 15:36:41;;;;;;;;;20.00;17.25;;;;;17.16;58.53;100930.31;146616;573;46012;-70
2023/02/23 15:40:04;;;;;;;;;20.75;17.25;;;;;17.10;58.43;100936.28;146613;570;46014;-69
2023/02/23 15:43:08;;;;;;;;;16.00;14.75;;;;;17.03;57.71;100930.00;146610;582;46020;-69
2023/02/23 15:46:10;;;;;;;;;16.00;15.00;;;;;16.91;57.70;100934.88;146604;598;47012;-69
2023/02/23 15:49:18;;;;;;;;;17.00;15.25;;;;;16.82;58.16;100939.84;146618;569;47010;-72
2023/02/23 15:52:43;;;;;;;;;;;;;;;;;;;;;
2023/02/23 15:55:59;;;;;;;;;17.25;14.75;;;;;16.69;57.81;100949.03;146617;605;46020;-70
2023/02/23 15:59:14;;;;;;;;;16.00;15.00;;;;;16.66;58.30;100953.28;146613;617;46013;-68
2023/02/23 16:02:33;;;;;;;;;24.00;19.50;;;;;16.60;58.59;100948.75;146618;603;46020;-69